createdAt,value
2022-08-20T00:00:49.771Z,20.00
2022-08-20T00:03:18.856Z,19.90
2022-08-20T00:05:52.792Z,19.90
2022-08-20T00:08:24.074Z,19.80
2022-08-20T00:10:55.602Z,19.80
2022-08-20T00:13:28.551Z,19.80
2022-08-20T00:15:55.977Z,19.80
2022-08-20T00:18:23.563Z,19.80
2022-08-20T00:20:53.099Z,19.70
2022-08-20T00:23:21.404Z,19.80
2022-08-20T00:25:50.001Z,19.70
2022-08-20T00:28:17.198Z,19.70
2022-08-20T00:30:45.742Z,19.70
2022-08-20T00:33:17.119Z,19.70
2022-08-20T00:35:48.382Z,19.70
2022-08-20T00:38:15.890Z,19.60
2022-08-20T00:40:53.179Z,19.60
2022-08-20T00:43:38.039Z,19.50
2022-08-20T00:46:10.681Z,19.50
2022-08-20T00:48:40.525Z,19.50
2022-08-20T00:51:13.300Z,19.50
2022-08-20T00:53:40.588Z,19.50
2022-08-20T00:56:09.494Z,19.50
2022-08-20T00:58:38.609Z,19.50
2022-08-20T01:01:07.545Z,19.50
2022-08-20T01:03:34.559Z,19.50
2022-08-20T01:06:01.416Z,19.50
2022-08-20T01:08:28.510Z,19.50
2022-08-20T01:11:15.671Z,19.50
2022-08-20T01:13:45.232Z,19.50
2022-08-20T01:16:21.888Z,19.40
2022-08-20T01:18:51.506Z,19.40
2022-08-20T01:21:25.311Z,19.40
2022-08-20T01:24:17.729Z,19.40
2022-08-20T01:26:47.309Z,19.40
2022-08-20T01:29:20.281Z,19.40
2022-08-20T01:31:47.862Z,19.30
2022-08-20T01:34:23.391Z,19.30
2022-08-20T01:36:53.212Z,19.20
2022-08-20T01:39:34.821Z,19.20
2022-08-20T01:42:23.533Z,19.20
2022-08-20T01:44:50.500Z,19.20
2022-08-20T01:47:27.885Z,19.20
2022-08-20T01:50:25.328Z,19.20
2022-08-20T01:53:12.261Z,19.10
2022-08-20T01:55:40.140Z,19.10
2022-08-20T01:58:07.367Z,19.10
2022-08-20T02:00:40.249Z,19.10
2022-08-20T02:03:10.596Z,19.10
2022-08-20T02:05:38.289Z,19.10
2022-08-20T02:08:05.493Z,19.00
2022-08-20T02:10:33.156Z,19.00
2022-08-20T02:13:01.429Z,19.00
2022-08-20T02:15:34.644Z,19.00
2022-08-20T02:18:11.573Z,19.00
2022-08-20T02:20:41.639Z,19.00
2022-08-20T02:26:16.091Z,19.00
2022-08-20T02:28:52.128Z,19.00
2022-08-20T02:31:20.815Z,19.00
2022-08-20T02:34:21.827Z,19.00
2022-08-20T02:36:37.986Z,19.00
2022-08-20T02:39:08.068Z,18.90
2022-08-20T02:41:36.293Z,18.90
2022-08-20T02:44:04.832Z,18.80
2022-08-20T02:46:41.554Z,18.90
2022-08-20T02:49:08.454Z,18.80
2022-08-20T02:54:33.974Z,18.80
2022-08-20T02:57:04.746Z,18.80
2022-08-20T02:59:32.468Z,18.80
2022-08-20T03:02:00.880Z,18.70
2022-08-20T03:04:34.602Z,18.70
2022-08-20T03:07:09.226Z,18.70
2022-08-20T03:12:37.466Z,18.70
2022-08-20T03:15:06.592Z,18.70
2022-08-20T03:17:50.265Z,18.60
2022-08-20T03:20:22.358Z,18.60
2022-08-20T03:22:52.207Z,18.60
2022-08-20T03:25:21.629Z,18.60
2022-08-20T03:27:54.972Z,18.60
2022-08-20T03:30:23.978Z,18.50
2022-08-20T03:38:46.567Z,18.40
2022-08-20T03:41:22.007Z,18.40
2022-08-20T03:52:52.347Z,18.30
2022-08-20T04:22:58.867Z,18.00
2022-08-20T04:25:35.924Z,18.00
2022-08-20T04:28:06.531Z,18.00
2022-08-20T04:30:37.568Z,18.00
2022-08-20T04:33:10.785Z,18.00
2022-08-20T04:59:22.612Z,17.90
2022-08-20T05:01:49.819Z,17.90
2022-08-20T05:04:16.856Z,17.80
2022-08-20T05:06:44.573Z,17.80
2022-08-20T05:09:44.170Z,17.80
2022-08-20T05:12:18.126Z,17.80
2022-08-20T05:21:01.360Z,17.80
2022-08-20T05:38:40.079Z,17.70
2022-08-20T05:41:07.323Z,17.70
2022-08-20T05:43:37.309Z,17.60
2022-08-20T05:46:05.504Z,17.70
2022-08-20T05:48:35.404Z,17.70
2022-08-20T05:51:05.416Z,17.70
2022-08-20T05:53:59.264Z,17.70
2022-08-20T05:56:30.640Z,17.70
2022-08-20T05:59:03.241Z,17.70
2022-08-20T06:01:31.645Z,17.70
2022-08-20T06:04:15.429Z,17.80
2022-08-20T06:06:45.723Z,17.70
2022-08-20T06:09:31.067Z,17.70
2022-08-20T06:12:06.119Z,17.70
2022-08-20T06:14:34.005Z,17.60
2022-08-20T06:17:13.416Z,17.60
2022-08-20T06:19:41.720Z,17.60
2022-08-20T06:22:19.777Z,17.60
2022-08-20T07:32:46.637Z,19.90
2022-08-20T07:35:17.085Z,19.70
2022-08-20T07:37:46.858Z,19.50
2022-08-20T07:40:21.244Z,19.30
2022-08-20T07:42:50.827Z,19.30
2022-08-20T07:45:18.825Z,19.20
2022-08-20T07:47:47.128Z,19.10
2022-08-20T07:50:17.864Z,19.10
2022-08-20T07:52:45.759Z,19.20
2022-08-20T07:55:15.501Z,19.50
2022-08-20T07:57:43.790Z,19.80
2022-08-20T08:00:14.147Z,20.10
2022-08-20T08:02:41.728Z,20.40
2022-08-20T08:05:09.140Z,20.80
2022-08-20T08:07:37.749Z,21.10
2022-08-20T08:10:07.444Z,21.30
2022-08-20T08:12:38.402Z,21.20
2022-08-20T08:15:09.996Z,21.20
2022-08-20T08:17:38.030Z,21.10
2022-08-20T08:20:07.260Z,21.10
2022-08-20T08:22:34.337Z,21.00
2022-08-20T08:25:02.606Z,20.90
2022-08-20T08:27:34.104Z,20.70
2022-08-20T08:30:03.011Z,20.60
2022-08-20T08:32:32.175Z,20.60
2022-08-20T08:35:03.162Z,20.70
2022-08-20T08:37:30.933Z,20.70
2022-08-20T08:39:58.159Z,20.80
2022-08-20T08:42:37.940Z,20.80
2022-08-20T08:45:10.711Z,21.00
2022-08-20T08:47:39.493Z,21.00
2022-08-20T08:50:09.744Z,21.10
2022-08-20T08:52:41.041Z,21.10
2022-08-20T08:55:16.061Z,21.10
2022-08-20T08:57:42.871Z,21.30
2022-08-20T09:00:15.454Z,21.40
2022-08-20T09:02:55.708Z,21.40
2022-08-20T09:05:27.003Z,21.50
2022-08-20T09:07:54.216Z,21.50
2022-08-20T09:10:23.410Z,21.60
2022-08-20T09:12:50.884Z,21.60
2022-08-20T09:15:19.430Z,21.60
2022-08-20T09:17:46.221Z,21.50
2022-08-20T09:20:13.297Z,21.40
2022-08-20T09:22:41.303Z,21.40
2022-08-20T09:25:08.619Z,21.40
2022-08-20T09:27:35.577Z,21.50
2022-08-20T09:30:04.088Z,21.50
2022-08-20T09:32:31.023Z,21.50
2022-08-20T09:34:59.898Z,21.50
2022-08-20T11:14:09.131Z,24.00
2022-08-20T11:16:35.964Z,24.20
2022-08-20T11:19:02.777Z,24.20
2022-08-20T11:21:29.616Z,24.20
2022-08-20T11:23:58.119Z,24.30
2022-08-20T11:26:27.992Z,24.20
2022-08-20T11:28:54.769Z,23.90
2022-08-20T11:31:21.649Z,23.70
2022-08-20T11:33:48.497Z,23.70
2022-08-20T11:36:15.318Z,23.90
2022-08-20T11:38:42.124Z,24.10
2022-08-20T11:41:08.900Z,24.10
2022-08-20T11:43:35.869Z,23.80
2022-08-20T11:46:02.682Z,23.80
2022-08-20T11:48:29.615Z,23.90
2022-08-20T11:50:56.445Z,24.10
2022-08-20T11:53:23.344Z,24.10
2022-08-20T11:55:50.437Z,23.90
2022-08-20T11:58:17.705Z,23.80
2022-08-20T12:00:44.595Z,24.00
2022-08-20T12:03:12.143Z,24.20
2022-08-20T12:05:42.973Z,24.30
2022-08-20T12:08:10.592Z,24.30
2022-08-20T12:10:53.832Z,24.60
2022-08-20T12:13:20.801Z,24.90
2022-08-20T12:15:56.379Z,25.20
2022-08-20T12:18:23.503Z,25.70
2022-08-20T12:20:54.473Z,25.90
2022-08-20T12:23:21.300Z,26.20
2022-08-20T12:25:48.122Z,26.30
2022-08-20T12:28:15.660Z,26.30
2022-08-20T12:30:42.486Z,26.30
2022-08-20T12:33:09.328Z,26.60
2022-08-20T12:35:36.817Z,27.00
2022-08-20T12:38:07.218Z,27.40
2022-08-20T12:40:34.535Z,27.60
2022-08-20T12:43:03.033Z,28.00
2022-08-20T12:45:30.616Z,28.30
2022-08-20T12:48:09.337Z,28.60
2022-08-20T12:50:38.502Z,28.20
2022-08-20T12:53:05.717Z,27.40
2022-08-20T12:55:33.728Z,26.70
2022-08-20T12:58:02.435Z,26.30
2022-08-20T13:00:34.798Z,25.80
2022-08-20T13:03:02.457Z,25.60
2022-08-20T13:05:30.461Z,25.30
2022-08-20T13:07:58.104Z,25.40
2022-08-20T13:10:31.505Z,25.70
2022-08-20T13:12:58.986Z,25.70
2022-08-20T13:15:25.890Z,26.20
2022-08-20T13:17:54.877Z,27.10
2022-08-20T13:20:25.580Z,27.90
2022-08-20T13:22:57.984Z,28.70
2022-08-20T13:25:25.597Z,29.00
2022-08-20T13:27:58.360Z,29.40
2022-08-20T13:30:25.960Z,29.80
2022-08-20T13:32:52.870Z,29.90
2022-08-20T13:35:20.143Z,30.00
2022-08-20T13:37:48.919Z,30.10
2022-08-20T13:40:16.554Z,30.30
2022-08-20T13:42:43.500Z,30.40
2022-08-20T13:45:10.914Z,30.20
2022-08-20T13:47:39.695Z,29.90
2022-08-20T13:50:19.115Z,30.10
2022-08-20T13:52:46.404Z,30.50
2022-08-20T13:55:18.136Z,31.20
2022-08-20T13:57:46.416Z,31.70
2022-08-20T14:00:17.740Z,32.10
2022-08-20T14:02:45.110Z,32.40
2022-08-20T14:05:14.305Z,32.40
2022-08-20T14:07:46.912Z,31.50
2022-08-20T14:10:18.405Z,30.50
2022-08-20T14:12:46.661Z,30.00
2022-08-20T14:15:13.893Z,29.90
2022-08-20T14:17:43.299Z,29.60
2022-08-20T14:20:14.308Z,28.80
2022-08-20T14:22:42.304Z,28.50
2022-08-20T14:25:11.835Z,28.60
2022-08-20T14:27:39.080Z,29.20
2022-08-20T14:30:11.892Z,29.60
2022-08-20T14:32:38.870Z,30.20
2022-08-20T14:35:06.844Z,31.00
2022-08-20T14:37:38.044Z,31.60
2022-08-20T14:40:08.923Z,32.10
2022-08-20T14:42:36.825Z,32.40
2022-08-20T14:45:06.344Z,32.40
2022-08-20T14:47:39.960Z,32.40
2022-08-20T14:50:14.770Z,32.50
2022-08-20T14:52:41.981Z,32.10
2022-08-20T14:55:12.503Z,31.70
2022-08-20T14:57:40.138Z,31.90
2022-08-20T15:00:10.516Z,32.10
2022-08-20T15:02:37.968Z,32.20
2022-08-20T15:05:07.198Z,32.40
2022-08-20T15:07:38.261Z,32.70
2022-08-20T15:10:08.327Z,32.90
2022-08-20T15:12:35.363Z,32.60
2022-08-20T15:15:13.355Z,31.90
2022-08-20T15:17:50.951Z,30.90
2022-08-20T15:20:21.287Z,30.60
2022-08-20T15:22:49.017Z,31.00
2022-08-20T15:25:18.368Z,31.70
2022-08-20T15:27:46.053Z,32.30
2022-08-20T15:30:16.542Z,32.70
2022-08-20T15:32:43.387Z,32.90
2022-08-20T15:35:11.422Z,33.10
2022-08-20T15:37:44.056Z,33.10
2022-08-20T15:40:18.093Z,32.00
2022-08-20T15:42:56.835Z,31.10
2022-08-20T15:45:24.032Z,31.20
2022-08-20T15:47:55.747Z,31.10
2022-08-20T15:50:34.815Z,30.90
2022-08-20T15:53:08.751Z,31.00
2022-08-20T15:55:40.524Z,31.10
2022-08-20T15:58:26.016Z,31.20
2022-08-20T16:01:15.359Z,31.10
2022-08-20T16:04:10.484Z,30.30
2022-08-20T16:06:38.798Z,29.40
2022-08-20T16:09:38.007Z,28.90
2022-08-20T16:12:17.528Z,28.50
2022-08-20T16:14:50.784Z,28.20
2022-08-20T16:17:27.293Z,27.70
2022-08-20T16:20:18.940Z,27.50
2022-08-20T16:22:46.652Z,26.90
2022-08-20T16:25:15.528Z,26.60
2022-08-20T16:27:50.124Z,26.20
2022-08-20T16:30:45.430Z,25.90
2022-08-20T16:33:59.830Z,25.70
2022-08-20T16:36:47.905Z,25.60
2022-08-20T16:39:39.421Z,25.40
2022-08-20T16:42:10.658Z,25.20
2022-08-20T16:44:46.338Z,25.10
2022-08-20T16:47:29.621Z,24.90
2022-08-20T16:50:16.271Z,24.70
2022-08-20T16:52:46.102Z,24.70
2022-08-20T16:55:14.029Z,24.60
2022-08-20T16:57:41.474Z,24.50
2022-08-20T17:00:12.654Z,24.40
2022-08-20T17:02:50.816Z,24.40
2022-08-20T17:05:18.270Z,24.30
2022-08-20T17:07:52.062Z,24.20
2022-08-20T17:10:33.880Z,24.20
2022-08-20T17:13:19.437Z,24.10
2022-08-20T17:15:55.590Z,24.10
2022-08-20T17:18:27.455Z,24.00
2022-08-20T17:21:13.852Z,24.00
2022-08-20T17:23:56.002Z,23.90
2022-08-20T17:26:26.614Z,23.90
2022-08-20T17:28:58.257Z,23.80
2022-08-20T17:31:39.046Z,23.70
2022-08-20T17:34:13.008Z,23.70
2022-08-20T17:36:49.514Z,23.70
2022-08-20T17:39:19.507Z,23.60
2022-08-20T17:41:59.709Z,23.50
2022-08-20T17:44:33.434Z,23.50
2022-08-20T17:47:04.964Z,23.50
2022-08-20T17:49:43.125Z,23.40
2022-08-20T17:52:27.737Z,23.40
2022-08-20T17:54:54.600Z,23.40
2022-08-20T17:57:26.781Z,23.30
2022-08-20T18:00:02.337Z,23.30
2022-08-20T18:02:30.619Z,23.20
2022-08-20T18:04:57.612Z,23.10
2022-08-20T18:07:27.384Z,23.00
2022-08-20T18:10:13.759Z,23.00
2022-08-20T18:13:08.472Z,22.90
2022-08-20T18:15:46.373Z,22.80
2022-08-20T18:18:55.017Z,22.70
2022-08-20T18:22:06.295Z,22.60
2022-08-20T18:24:49.126Z,22.60
2022-08-20T18:27:17.314Z,22.50
2022-08-20T18:29:48.523Z,22.40
2022-08-20T18:32:34.128Z,22.30
2022-08-20T18:35:35.820Z,22.20
2022-08-20T18:38:30.256Z,22.10
2022-08-20T18:41:07.219Z,22.00
2022-08-20T18:43:34.284Z,21.90
2022-08-20T18:46:21.731Z,21.90
2022-08-20T18:48:56.351Z,21.70
2022-08-20T18:51:36.080Z,21.70
2022-08-20T18:54:03.425Z,21.60
2022-08-20T18:56:42.235Z,21.50
2022-08-20T18:59:18.849Z,21.50
2022-08-20T19:01:48.472Z,21.40
2022-08-20T19:04:34.477Z,21.40
2022-08-20T19:07:06.507Z,21.30
2022-08-20T19:10:09.574Z,21.30
2022-08-20T19:13:08.302Z,21.20
2022-08-20T19:15:43.131Z,21.20
2022-08-20T19:18:23.922Z,21.20
2022-08-20T19:21:03.037Z,21.20
2022-08-20T19:23:37.139Z,21.20
2022-08-20T19:26:25.077Z,21.20
2022-08-20T19:29:01.773Z,21.20
2022-08-20T19:31:30.622Z,21.20
2022-08-20T19:34:27.075Z,21.10
2022-08-20T19:37:02.143Z,21.10
2022-08-20T19:39:37.561Z,21.00
2022-08-20T19:42:31.094Z,20.90
2022-08-20T19:45:09.071Z,20.90
2022-08-20T19:47:42.776Z,20.90
2022-08-20T19:50:37.518Z,20.80
2022-08-20T19:53:30.793Z,20.80
2022-08-20T19:56:09.614Z,20.70
2022-08-20T19:58:37.427Z,20.60
2022-08-20T20:01:10.606Z,20.60
2022-08-20T20:03:38.415Z,20.60
2022-08-20T20:06:18.275Z,20.60
2022-08-20T20:09:00.034Z,20.60
2022-08-20T20:11:42.075Z,20.60
2022-08-20T20:14:11.717Z,20.50
2022-08-20T20:16:42.553Z,20.50
2022-08-20T20:19:27.983Z,20.50
2022-08-20T20:22:20.036Z,20.40
2022-08-20T20:24:57.640Z,20.40
2022-08-20T20:27:26.822Z,20.40
2022-08-20T20:30:12.793Z,20.40
2022-08-20T20:32:48.912Z,20.40
2022-08-20T20:35:33.982Z,20.40
2022-08-20T20:38:11.644Z,20.30
2022-08-20T20:40:53.895Z,20.30
2022-08-20T20:43:37.278Z,20.20
2022-08-20T20:46:04.156Z,20.20
2022-08-20T20:48:42.414Z,20.20
2022-08-20T20:51:18.305Z,20.10
2022-08-20T20:53:54.295Z,20.10
2022-08-20T20:56:37.881Z,20.10
2022-08-20T20:59:07.336Z,20.00
2022-08-20T21:01:50.126Z,20.00
2022-08-20T21:04:19.786Z,19.90
2022-08-20T21:06:46.674Z,19.90
2022-08-20T21:09:13.934Z,19.90
2022-08-20T21:11:40.792Z,19.90
2022-08-20T21:14:07.779Z,19.80
2022-08-20T21:16:34.906Z,19.80
2022-08-20T21:19:04.636Z,19.80
2022-08-20T21:21:31.560Z,19.80
2022-08-20T21:23:58.553Z,19.80
2022-08-20T21:26:27.574Z,19.80
2022-08-20T21:28:54.933Z,19.80
2022-08-20T21:31:30.757Z,19.80
2022-08-20T21:33:57.681Z,19.80
2022-08-20T21:36:24.605Z,19.70
2022-08-20T21:38:51.503Z,19.70
2022-08-20T21:41:18.963Z,19.70
2022-08-20T21:43:56.777Z,19.70
2022-08-20T21:46:25.067Z,19.70
2022-08-20T21:48:52.059Z,19.70
2022-08-20T21:51:19.047Z,19.60
2022-08-20T21:53:46.048Z,19.60
2022-08-20T21:56:12.960Z,19.60
2022-08-20T21:58:40.117Z,19.50
2022-08-20T22:01:15.262Z,19.50
2022-08-20T22:03:42.797Z,19.40
2022-08-20T22:06:11.793Z,19.40
2022-08-20T22:08:39.248Z,19.40
2022-08-20T22:11:08.800Z,19.40
2022-08-20T22:13:35.917Z,19.40
2022-08-20T22:16:06.276Z,19.40
2022-08-20T22:18:34.597Z,19.30
2022-08-20T22:21:02.448Z,19.40
2022-08-20T22:23:29.305Z,19.30
2022-08-20T22:25:56.191Z,19.30
2022-08-20T22:28:23.266Z,19.30
2022-08-20T22:30:50.344Z,19.30
2022-08-20T22:33:22.504Z,19.30
2022-08-20T22:35:52.628Z,19.30
2022-08-20T22:38:19.626Z,19.30
2022-08-20T22:40:46.992Z,19.10
2022-08-20T22:43:14.741Z,19.10
2022-08-20T22:45:44.814Z,19.10
2022-08-20T22:48:14.333Z,19.10
2022-08-20T22:50:41.163Z,19.10
2022-08-20T22:53:08.809Z,19.00
2022-08-20T22:55:36.884Z,19.00
2022-08-20T22:58:03.856Z,19.00
2022-08-20T23:00:32.386Z,19.00
2022-08-20T23:03:01.220Z,19.00
2022-08-20T23:05:31.769Z,19.00
2022-08-20T23:08:00.500Z,19.00
2022-08-20T23:10:29.603Z,19.00
2022-08-20T23:12:57.399Z,19.00
2022-08-20T23:15:26.736Z,19.00
2022-08-20T23:17:57.537Z,18.90
2022-08-20T23:20:24.450Z,18.80
2022-08-20T23:22:51.278Z,18.80
2022-08-20T23:25:21.764Z,18.80
2022-08-20T23:27:52.090Z,18.70
2022-08-20T23:30:20.917Z,18.60
2022-08-20T23:32:47.969Z,18.60
2022-08-20T23:35:15.382Z,18.60
2022-08-20T23:37:47.793Z,18.50
2022-08-20T23:40:17.830Z,18.50
2022-08-20T23:42:54.500Z,18.50
2022-08-20T23:45:21.839Z,18.40
2022-08-20T23:47:49.618Z,18.40
2022-08-20T23:50:22.297Z,18.30
2022-08-20T23:52:51.988Z,18.30
2022-08-20T23:55:19.522Z,18.20
2022-08-20T23:57:46.478Z,18.20
